﻿<?xml version="1.0" encoding="UTF-8" standalone="no" ?>
<gpx xmlns="http://www.topografix.com/GPX/1/1" creator="CompeGPS" version="1.1" xmlns:xsi="http://www.w3.org/2001/XMLSchema-instance" xsi:schemaLocation="http://www.topografix.com/GPX/1/1 http://www.topografix.com/GPX/1/1/gpx.xsd http://www.garmin.com/xmlschemas/GpxExtensions/v3 http://www.garmin.com/xmlschemas/GpxExtensionsv3.xsd http://www.garmin.com/xmlschemas/TrackPointExtension/v1 http://www.garmin.com/xmlschemas/TrackPointExtensionv1.xsd" xmlns:gpxtpx="http://www.garmin.com/xmlschemas/TrackPointExtension/v1">
  <metadata>
    <link href="http://www.compegps.com">
      <text>CompeGPS TEAM, SL</text>
    </link>
    <time>2013-04-11T19:38:55Z</time>
    <bounds maxlat="32.572301" maxlon="35.014209" minlat="32.568626" minlon="35.005885"/>
  </metadata>
  <trk>
    <name>efraty2013 split</name>
    <trkseg>
      <trkpt lat="32.572301" lon="35.007183">
        <ele>121.2</ele>
        <time>2013-04-05T05:19:32Z</time>
      </trkpt>
      <trkpt lat="32.572237" lon="35.007268">
        <ele>121.6</ele>
        <time>2013-04-05T05:19:33Z</time>
      </trkpt>
      <trkpt lat="32.572202" lon="35.007323">
        <ele>122.0</ele>
        <time>2013-04-05T05:19:35Z</time>
      </trkpt>
      <trkpt lat="32.572182" lon="35.007278">
        <ele>121.5</ele>
        <time>2013-04-05T05:19:37Z</time>
      </trkpt>
      <trkpt lat="32.572152" lon="35.007269">
        <ele>121.3</ele>
        <time>2013-04-05T05:19:38Z</time>
      </trkpt>
      <trkpt lat="32.572127" lon="35.007255">
        <ele>121.0</ele>
        <time>2013-04-05T05:19:39Z</time>
      </trkpt>
      <trkpt lat="32.572077" lon="35.007236">
        <ele>120.7</ele>
        <time>2013-04-05T05:19:41Z</time>
      </trkpt>
      <trkpt lat="32.572033" lon="35.007206">
        <ele>120.5</ele>
        <time>2013-04-05T05:19:43Z</time>
      </trkpt>
      <trkpt lat="32.571975" lon="35.007195">
        <ele>120.6</ele>
        <time>2013-04-05T05:19:44Z</time>
      </trkpt>
      <trkpt lat="32.571936" lon="35.007189">
        <ele>120.7</ele>
        <time>2013-04-05T05:19:45Z</time>
      </trkpt>
      <trkpt lat="32.571891" lon="35.007183">
        <ele>120.8</ele>
        <time>2013-04-05T05:19:47Z</time>
      </trkpt>
      <trkpt lat="32.571839" lon="35.007170">
        <ele>120.9</ele>
        <time>2013-04-05T05:19:49Z</time>
      </trkpt>
      <trkpt lat="32.571747" lon="35.007183">
        <ele>121.4</ele>
        <time>2013-04-05T05:19:51Z</time>
      </trkpt>
      <trkpt lat="32.571708" lon="35.007186">
        <ele>121.6</ele>
        <time>2013-04-05T05:19:52Z</time>
      </trkpt>
      <trkpt lat="32.571663" lon="35.007186">
        <ele>121.7</ele>
        <time>2013-04-05T05:19:53Z</time>
      </trkpt>
      <trkpt lat="32.571626" lon="35.007182">
        <ele>121.8</ele>
        <time>2013-04-05T05:19:54Z</time>
      </trkpt>
      <trkpt lat="32.571588" lon="35.007174">
        <ele>121.9</ele>
        <time>2013-04-05T05:19:55Z</time>
      </trkpt>
      <trkpt lat="32.571552" lon="35.007161">
        <ele>121.9</ele>
        <time>2013-04-05T05:19:56Z</time>
      </trkpt>
      <trkpt lat="32.571518" lon="35.007135">
        <ele>121.7</ele>
        <time>2013-04-05T05:19:57Z</time>
      </trkpt>
      <trkpt lat="32.571488" lon="35.007105">
        <ele>121.4</ele>
        <time>2013-04-05T05:19:58Z</time>
      </trkpt>
      <trkpt lat="32.571455" lon="35.007073">
        <ele>121.2</ele>
        <time>2013-04-05T05:19:59Z</time>
      </trkpt>
      <trkpt lat="32.571383" lon="35.006989">
        <ele>120.8</ele>
        <time>2013-04-05T05:20:00Z</time>
      </trkpt>
      <trkpt lat="32.571334" lon="35.006972">
        <ele>120.8</ele>
        <time>2013-04-05T05:20:01Z</time>
      </trkpt>
      <trkpt lat="32.571278" lon="35.006951">
        <ele>120.8</ele>
        <time>2013-04-05T05:20:02Z</time>
      </trkpt>
      <trkpt lat="32.571220" lon="35.006913">
        <ele>120.6</ele>
        <time>2013-04-05T05:20:03Z</time>
      </trkpt>
      <trkpt lat="32.571169" lon="35.006899">
        <ele>120.5</ele>
        <time>2013-04-05T05:20:04Z</time>
      </trkpt>
      <trkpt lat="32.571119" lon="35.006863">
        <ele>120.3</ele>
        <time>2013-04-05T05:20:05Z</time>
      </trkpt>
      <trkpt lat="32.571088" lon="35.006834">
        <ele>120.1</ele>
        <time>2013-04-05T05:20:06Z</time>
      </trkpt>
      <trkpt lat="32.571055" lon="35.006806">
        <ele>120.0</ele>
        <time>2013-04-05T05:20:07Z</time>
      </trkpt>
      <trkpt lat="32.571022" lon="35.006778">
        <ele>119.8</ele>
        <time>2013-04-05T05:20:08Z</time>
      </trkpt>
      <trkpt lat="32.570953" lon="35.006756">
        <ele>119.8</ele>
        <time>2013-04-05T05:20:09Z</time>
      </trkpt>
      <trkpt lat="32.570906" lon="35.006737">
        <ele>119.8</ele>
        <time>2013-04-05T05:20:10Z</time>
      </trkpt>
      <trkpt lat="32.570875" lon="35.006709">
        <ele>119.7</ele>
        <time>2013-04-05T05:20:11Z</time>
      </trkpt>
      <trkpt lat="32.570837" lon="35.006687">
        <ele>119.6</ele>
        <time>2013-04-05T05:20:12Z</time>
      </trkpt>
      <trkpt lat="32.570816" lon="35.006661">
        <ele>119.5</ele>
        <time>2013-04-05T05:20:13Z</time>
      </trkpt>
      <trkpt lat="32.570806" lon="35.006621">
        <ele>119.3</ele>
        <time>2013-04-05T05:20:14Z</time>
      </trkpt>
      <trkpt lat="32.570771" lon="35.006592">
        <ele>119.2</ele>
        <time>2013-04-05T05:20:15Z</time>
      </trkpt>
      <trkpt lat="32.570732" lon="35.006575">
        <ele>119.2</ele>
        <time>2013-04-05T05:20:16Z</time>
      </trkpt>
      <trkpt lat="32.570698" lon="35.006536">
        <ele>119.1</ele>
        <time>2013-04-05T05:20:17Z</time>
      </trkpt>
      <trkpt lat="32.570629" lon="35.006531">
        <ele>119.3</ele>
        <time>2013-04-05T05:20:19Z</time>
      </trkpt>
      <trkpt lat="32.570587" lon="35.006505">
        <ele>119.4</ele>
        <time>2013-04-05T05:20:20Z</time>
      </trkpt>
      <trkpt lat="32.570549" lon="35.006481">
        <ele>119.4</ele>
        <time>2013-04-05T05:20:21Z</time>
      </trkpt>
      <trkpt lat="32.570510" lon="35.006457">
        <ele>119.4</ele>
        <time>2013-04-05T05:20:22Z</time>
      </trkpt>
      <trkpt lat="32.570470" lon="35.006435">
        <ele>119.5</ele>
        <time>2013-04-05T05:20:23Z</time>
      </trkpt>
      <trkpt lat="32.570428" lon="35.006415">
        <ele>119.5</ele>
        <time>2013-04-05T05:20:24Z</time>
      </trkpt>
      <trkpt lat="32.570406" lon="35.006386">
        <ele>119.5</ele>
        <time>2013-04-05T05:20:25Z</time>
      </trkpt>
      <trkpt lat="32.570393" lon="35.006355">
        <ele>119.3</ele>
        <time>2013-04-05T05:20:26Z</time>
      </trkpt>
      <trkpt lat="32.570382" lon="35.006311">
        <ele>119.1</ele>
        <time>2013-04-05T05:20:27Z</time>
      </trkpt>
      <trkpt lat="32.570361" lon="35.006268">
        <ele>118.9</ele>
        <time>2013-04-05T05:20:28Z</time>
      </trkpt>
      <trkpt lat="32.570329" lon="35.006238">
        <ele>118.7</ele>
        <time>2013-04-05T05:20:29Z</time>
      </trkpt>
      <trkpt lat="32.570302" lon="35.006210">
        <ele>118.7</ele>
        <time>2013-04-05T05:20:31Z</time>
      </trkpt>
      <trkpt lat="32.570277" lon="35.006189">
        <ele>118.6</ele>
        <time>2013-04-05T05:20:34Z</time>
      </trkpt>
      <trkpt lat="32.570237" lon="35.006161">
        <ele>118.5</ele>
        <time>2013-04-05T05:20:36Z</time>
      </trkpt>
      <trkpt lat="32.570214" lon="35.006144">
        <ele>118.5</ele>
        <time>2013-04-05T05:20:37Z</time>
      </trkpt>
      <trkpt lat="32.570191" lon="35.006123">
        <ele>118.5</ele>
        <time>2013-04-05T05:20:38Z</time>
      </trkpt>
      <trkpt lat="32.570163" lon="35.006103">
        <ele>118.4</ele>
        <time>2013-04-05T05:20:39Z</time>
      </trkpt>
      <trkpt lat="32.570120" lon="35.006083">
        <ele>118.3</ele>
        <time>2013-04-05T05:20:40Z</time>
      </trkpt>
      <trkpt lat="32.570074" lon="35.006059">
        <ele>118.1</ele>
        <time>2013-04-05T05:20:41Z</time>
      </trkpt>
      <trkpt lat="32.570024" lon="35.006033">
        <ele>118.0</ele>
        <time>2013-04-05T05:20:42Z</time>
      </trkpt>
      <trkpt lat="32.569974" lon="35.006004">
        <ele>117.8</ele>
        <time>2013-04-05T05:20:43Z</time>
      </trkpt>
      <trkpt lat="32.569926" lon="35.005972">
        <ele>117.7</ele>
        <time>2013-04-05T05:20:44Z</time>
      </trkpt>
      <trkpt lat="32.569890" lon="35.005956">
        <ele>117.6</ele>
        <time>2013-04-05T05:20:45Z</time>
      </trkpt>
      <trkpt lat="32.569857" lon="35.005939">
        <ele>117.5</ele>
        <time>2013-04-05T05:20:46Z</time>
      </trkpt>
      <trkpt lat="32.569830" lon="35.005924">
        <ele>117.4</ele>
        <time>2013-04-05T05:20:47Z</time>
      </trkpt>
      <trkpt lat="32.569807" lon="35.005904">
        <ele>117.3</ele>
        <time>2013-04-05T05:20:48Z</time>
      </trkpt>
      <trkpt lat="32.569768" lon="35.005888">
        <ele>117.2</ele>
        <time>2013-04-05T05:20:49Z</time>
      </trkpt>
      <trkpt lat="32.569731" lon="35.005885">
        <ele>117.0</ele>
        <time>2013-04-05T05:20:50Z</time>
      </trkpt>
      <trkpt lat="32.569694" lon="35.005890">
        <ele>116.9</ele>
        <time>2013-04-05T05:20:51Z</time>
      </trkpt>
      <trkpt lat="32.569659" lon="35.005908">
        <ele>116.7</ele>
        <time>2013-04-05T05:20:52Z</time>
      </trkpt>
      <trkpt lat="32.569633" lon="35.005932">
        <ele>116.6</ele>
        <time>2013-04-05T05:20:53Z</time>
      </trkpt>
      <trkpt lat="32.569611" lon="35.005956">
        <ele>116.5</ele>
        <time>2013-04-05T05:20:54Z</time>
      </trkpt>
      <trkpt lat="32.569590" lon="35.005980">
        <ele>116.4</ele>
        <time>2013-04-05T05:20:55Z</time>
      </trkpt>
      <trkpt lat="32.569542" lon="35.006034">
        <ele>115.8</ele>
        <time>2013-04-05T05:20:57Z</time>
      </trkpt>
      <trkpt lat="32.569509" lon="35.006066">
        <ele>115.4</ele>
        <time>2013-04-05T05:20:58Z</time>
      </trkpt>
      <trkpt lat="32.569405" lon="35.006083">
        <ele>114.4</ele>
        <time>2013-04-05T05:20:59Z</time>
      </trkpt>
      <trkpt lat="32.569362" lon="35.006111">
        <ele>113.9</ele>
        <time>2013-04-05T05:21:00Z</time>
      </trkpt>
      <trkpt lat="32.569325" lon="35.006136">
        <ele>113.5</ele>
        <time>2013-04-05T05:21:01Z</time>
      </trkpt>
      <trkpt lat="32.569293" lon="35.006157">
        <ele>113.2</ele>
        <time>2013-04-05T05:21:02Z</time>
      </trkpt>
      <trkpt lat="32.569265" lon="35.006176">
        <ele>112.9</ele>
        <time>2013-04-05T05:21:03Z</time>
      </trkpt>
      <trkpt lat="32.569264" lon="35.006131">
        <ele>112.9</ele>
        <time>2013-04-05T05:21:04Z</time>
      </trkpt>
      <trkpt lat="32.569211" lon="35.006118">
        <ele>112.4</ele>
        <time>2013-04-05T05:21:06Z</time>
      </trkpt>
      <trkpt lat="32.569180" lon="35.006142">
        <ele>112.1</ele>
        <time>2013-04-05T05:21:08Z</time>
      </trkpt>
      <trkpt lat="32.569141" lon="35.006136">
        <ele>111.7</ele>
        <time>2013-04-05T05:21:11Z</time>
      </trkpt>
      <trkpt lat="32.569111" lon="35.006138">
        <ele>111.4</ele>
        <time>2013-04-05T05:21:12Z</time>
      </trkpt>
      <trkpt lat="32.569068" lon="35.006144">
        <ele>110.9</ele>
        <time>2013-04-05T05:21:13Z</time>
      </trkpt>
      <trkpt lat="32.569020" lon="35.006157">
        <ele>110.5</ele>
        <time>2013-04-05T05:21:14Z</time>
      </trkpt>
      <trkpt lat="32.568970" lon="35.006174">
        <ele>110.0</ele>
        <time>2013-04-05T05:21:15Z</time>
      </trkpt>
      <trkpt lat="32.568927" lon="35.006186">
        <ele>109.6</ele>
        <time>2013-04-05T05:21:16Z</time>
      </trkpt>
      <trkpt lat="32.568900" lon="35.006197">
        <ele>109.3</ele>
        <time>2013-04-05T05:21:17Z</time>
      </trkpt>
      <trkpt lat="32.568865" lon="35.006211">
        <ele>109.0</ele>
        <time>2013-04-05T05:21:18Z</time>
      </trkpt>
      <trkpt lat="32.568830" lon="35.006230">
        <ele>108.7</ele>
        <time>2013-04-05T05:21:19Z</time>
      </trkpt>
      <trkpt lat="32.568792" lon="35.006256">
        <ele>108.4</ele>
        <time>2013-04-05T05:21:20Z</time>
      </trkpt>
      <trkpt lat="32.568749" lon="35.006287">
        <ele>108.2</ele>
        <time>2013-04-05T05:21:21Z</time>
      </trkpt>
      <trkpt lat="32.568709" lon="35.006322">
        <ele>108.0</ele>
        <time>2013-04-05T05:21:22Z</time>
      </trkpt>
      <trkpt lat="32.568666" lon="35.006363">
        <ele>107.8</ele>
        <time>2013-04-05T05:21:23Z</time>
      </trkpt>
      <trkpt lat="32.568642" lon="35.006406">
        <ele>107.8</ele>
        <time>2013-04-05T05:21:24Z</time>
      </trkpt>
      <trkpt lat="32.568628" lon="35.006444">
        <ele>107.9</ele>
        <time>2013-04-05T05:21:25Z</time>
      </trkpt>
      <trkpt lat="32.568626" lon="35.006501">
        <ele>108.2</ele>
        <time>2013-04-05T05:21:27Z</time>
      </trkpt>
      <trkpt lat="32.568630" lon="35.006534">
        <ele>108.5</ele>
        <time>2013-04-05T05:21:28Z</time>
      </trkpt>
      <trkpt lat="32.568636" lon="35.006573">
        <ele>108.7</ele>
        <time>2013-04-05T05:21:29Z</time>
      </trkpt>
      <trkpt lat="32.568645" lon="35.006604">
        <ele>109.0</ele>
        <time>2013-04-05T05:21:30Z</time>
      </trkpt>
      <trkpt lat="32.568672" lon="35.006647">
        <ele>109.5</ele>
        <time>2013-04-05T05:21:32Z</time>
      </trkpt>
      <trkpt lat="32.568694" lon="35.006665">
        <ele>109.9</ele>
        <time>2013-04-05T05:21:34Z</time>
      </trkpt>
      <trkpt lat="32.568712" lon="35.006689">
        <ele>110.2</ele>
        <time>2013-04-05T05:21:37Z</time>
      </trkpt>
      <trkpt lat="32.568699" lon="35.006719">
        <ele>110.2</ele>
        <time>2013-04-05T05:21:40Z</time>
      </trkpt>
      <trkpt lat="32.568691" lon="35.006759">
        <ele>110.4</ele>
        <time>2013-04-05T05:21:42Z</time>
      </trkpt>
      <trkpt lat="32.568706" lon="35.006797">
        <ele>110.8</ele>
        <time>2013-04-05T05:21:44Z</time>
      </trkpt>
      <trkpt lat="32.568732" lon="35.006827">
        <ele>111.3</ele>
        <time>2013-04-05T05:21:46Z</time>
      </trkpt>
      <trkpt lat="32.568768" lon="35.006846">
        <ele>111.8</ele>
        <time>2013-04-05T05:21:48Z</time>
      </trkpt>
      <trkpt lat="32.568810" lon="35.006853">
        <ele>112.2</ele>
        <time>2013-04-05T05:21:50Z</time>
      </trkpt>
      <trkpt lat="32.568854" lon="35.006849">
        <ele>112.7</ele>
        <time>2013-04-05T05:21:52Z</time>
      </trkpt>
      <trkpt lat="32.568885" lon="35.006851">
        <ele>113.0</ele>
        <time>2013-04-05T05:21:54Z</time>
      </trkpt>
      <trkpt lat="32.568907" lon="35.006884">
        <ele>113.5</ele>
        <time>2013-04-05T05:21:57Z</time>
      </trkpt>
      <trkpt lat="32.568930" lon="35.006917">
        <ele>113.9</ele>
        <time>2013-04-05T05:21:59Z</time>
      </trkpt>
      <trkpt lat="32.568956" lon="35.006955">
        <ele>114.4</ele>
        <time>2013-04-05T05:22:01Z</time>
      </trkpt>
      <trkpt lat="32.568985" lon="35.006994">
        <ele>115.0</ele>
        <time>2013-04-05T05:22:03Z</time>
      </trkpt>
      <trkpt lat="32.569011" lon="35.007044">
        <ele>115.6</ele>
        <time>2013-04-05T05:22:05Z</time>
      </trkpt>
      <trkpt lat="32.569024" lon="35.007096">
        <ele>116.0</ele>
        <time>2013-04-05T05:22:07Z</time>
      </trkpt>
      <trkpt lat="32.569035" lon="35.007137">
        <ele>116.4</ele>
        <time>2013-04-05T05:22:09Z</time>
      </trkpt>
      <trkpt lat="32.569056" lon="35.007164">
        <ele>116.8</ele>
        <time>2013-04-05T05:22:13Z</time>
      </trkpt>
      <trkpt lat="32.569075" lon="35.007202">
        <ele>117.3</ele>
        <time>2013-04-05T05:22:15Z</time>
      </trkpt>
      <trkpt lat="32.569101" lon="35.007244">
        <ele>117.8</ele>
        <time>2013-04-05T05:22:17Z</time>
      </trkpt>
      <trkpt lat="32.569131" lon="35.007274">
        <ele>118.4</ele>
        <time>2013-04-05T05:22:19Z</time>
      </trkpt>
      <trkpt lat="32.569154" lon="35.007294">
        <ele>118.7</ele>
        <time>2013-04-05T05:22:21Z</time>
      </trkpt>
      <trkpt lat="32.569181" lon="35.007325">
        <ele>119.3</ele>
        <time>2013-04-05T05:22:23Z</time>
      </trkpt>
      <trkpt lat="32.569212" lon="35.007356">
        <ele>119.8</ele>
        <time>2013-04-05T05:22:25Z</time>
      </trkpt>
      <trkpt lat="32.569243" lon="35.007391">
        <ele>120.4</ele>
        <time>2013-04-05T05:22:27Z</time>
      </trkpt>
      <trkpt lat="32.569284" lon="35.007406">
        <ele>120.9</ele>
        <time>2013-04-05T05:22:29Z</time>
      </trkpt>
      <trkpt lat="32.569336" lon="35.007404">
        <ele>121.5</ele>
        <time>2013-04-05T05:22:31Z</time>
      </trkpt>
      <trkpt lat="32.569364" lon="35.007406">
        <ele>121.8</ele>
        <time>2013-04-05T05:22:32Z</time>
      </trkpt>
      <trkpt lat="32.569409" lon="35.007421">
        <ele>122.5</ele>
        <time>2013-04-05T05:22:34Z</time>
      </trkpt>
      <trkpt lat="32.569448" lon="35.007452">
        <ele>123.1</ele>
        <time>2013-04-05T05:22:36Z</time>
      </trkpt>
      <trkpt lat="32.569481" lon="35.007485">
        <ele>123.7</ele>
        <time>2013-04-05T05:22:38Z</time>
      </trkpt>
      <trkpt lat="32.569516" lon="35.007504">
        <ele>124.3</ele>
        <time>2013-04-05T05:22:40Z</time>
      </trkpt>
      <trkpt lat="32.569546" lon="35.007527">
        <ele>124.8</ele>
        <time>2013-04-05T05:22:42Z</time>
      </trkpt>
      <trkpt lat="32.569573" lon="35.007552">
        <ele>125.2</ele>
        <time>2013-04-05T05:22:44Z</time>
      </trkpt>
      <trkpt lat="32.569597" lon="35.007576">
        <ele>125.6</ele>
        <time>2013-04-05T05:22:46Z</time>
      </trkpt>
      <trkpt lat="32.569618" lon="35.007598">
        <ele>125.8</ele>
        <time>2013-04-05T05:22:48Z</time>
      </trkpt>
      <trkpt lat="32.569640" lon="35.007627">
        <ele>126.1</ele>
        <time>2013-04-05T05:22:50Z</time>
      </trkpt>
      <trkpt lat="32.569661" lon="35.007654">
        <ele>126.4</ele>
        <time>2013-04-05T05:22:52Z</time>
      </trkpt>
      <trkpt lat="32.569685" lon="35.007678">
        <ele>126.6</ele>
        <time>2013-04-05T05:22:55Z</time>
      </trkpt>
      <trkpt lat="32.569707" lon="35.007706">
        <ele>126.9</ele>
        <time>2013-04-05T05:22:59Z</time>
      </trkpt>
      <trkpt lat="32.569734" lon="35.007718">
        <ele>127.1</ele>
        <time>2013-04-05T05:23:00Z</time>
      </trkpt>
      <trkpt lat="32.569774" lon="35.007722">
        <ele>127.3</ele>
        <time>2013-04-05T05:23:02Z</time>
      </trkpt>
      <trkpt lat="32.569811" lon="35.007722">
        <ele>127.4</ele>
        <time>2013-04-05T05:23:03Z</time>
      </trkpt>
      <trkpt lat="32.569840" lon="35.007716">
        <ele>127.5</ele>
        <time>2013-04-05T05:23:04Z</time>
      </trkpt>
      <trkpt lat="32.569894" lon="35.007712">
        <ele>127.6</ele>
        <time>2013-04-05T05:23:06Z</time>
      </trkpt>
      <trkpt lat="32.569945" lon="35.007706">
        <ele>127.8</ele>
        <time>2013-04-05T05:23:08Z</time>
      </trkpt>
      <trkpt lat="32.569981" lon="35.007698">
        <ele>127.8</ele>
        <time>2013-04-05T05:23:10Z</time>
      </trkpt>
      <trkpt lat="32.570011" lon="35.007717">
        <ele>128.1</ele>
        <time>2013-04-05T05:23:12Z</time>
      </trkpt>
      <trkpt lat="32.570028" lon="35.007749">
        <ele>128.5</ele>
        <time>2013-04-05T05:23:14Z</time>
      </trkpt>
      <trkpt lat="32.570047" lon="35.007781">
        <ele>128.9</ele>
        <time>2013-04-05T05:23:15Z</time>
      </trkpt>
      <trkpt lat="32.570068" lon="35.007804">
        <ele>129.2</ele>
        <time>2013-04-05T05:23:16Z</time>
      </trkpt>
      <trkpt lat="32.570119" lon="35.007840">
        <ele>129.8</ele>
        <time>2013-04-05T05:23:18Z</time>
      </trkpt>
      <trkpt lat="32.570172" lon="35.007850">
        <ele>130.1</ele>
        <time>2013-04-05T05:23:20Z</time>
      </trkpt>
      <trkpt lat="32.570218" lon="35.007852">
        <ele>130.3</ele>
        <time>2013-04-05T05:23:22Z</time>
      </trkpt>
      <trkpt lat="32.570254" lon="35.007861">
        <ele>130.6</ele>
        <time>2013-04-05T05:23:24Z</time>
      </trkpt>
      <trkpt lat="32.570273" lon="35.007884">
        <ele>130.9</ele>
        <time>2013-04-05T05:23:27Z</time>
      </trkpt>
      <trkpt lat="32.570295" lon="35.007919">
        <ele>131.4</ele>
        <time>2013-04-05T05:23:30Z</time>
      </trkpt>
      <trkpt lat="32.570312" lon="35.007949">
        <ele>131.8</ele>
        <time>2013-04-05T05:23:32Z</time>
      </trkpt>
      <trkpt lat="32.570335" lon="35.007991">
        <ele>132.2</ele>
        <time>2013-04-05T05:23:35Z</time>
      </trkpt>
      <trkpt lat="32.570360" lon="35.008026">
        <ele>132.7</ele>
        <time>2013-04-05T05:23:37Z</time>
      </trkpt>
      <trkpt lat="32.570385" lon="35.008065">
        <ele>133.2</ele>
        <time>2013-04-05T05:23:39Z</time>
      </trkpt>
      <trkpt lat="32.570413" lon="35.008100">
        <ele>133.7</ele>
        <time>2013-04-05T05:23:41Z</time>
      </trkpt>
      <trkpt lat="32.570431" lon="35.008127">
        <ele>134.0</ele>
        <time>2013-04-05T05:23:43Z</time>
      </trkpt>
      <trkpt lat="32.570451" lon="35.008155">
        <ele>134.4</ele>
        <time>2013-04-05T05:23:45Z</time>
      </trkpt>
      <trkpt lat="32.570471" lon="35.008189">
        <ele>134.8</ele>
        <time>2013-04-05T05:23:47Z</time>
      </trkpt>
      <trkpt lat="32.570488" lon="35.008234">
        <ele>135.3</ele>
        <time>2013-04-05T05:23:49Z</time>
      </trkpt>
      <trkpt lat="32.570493" lon="35.008269">
        <ele>135.6</ele>
        <time>2013-04-05T05:23:51Z</time>
      </trkpt>
      <trkpt lat="32.570484" lon="35.008305">
        <ele>136.0</ele>
        <time>2013-04-05T05:23:54Z</time>
      </trkpt>
      <trkpt lat="32.570461" lon="35.008353">
        <ele>136.4</ele>
        <time>2013-04-05T05:23:56Z</time>
      </trkpt>
      <trkpt lat="32.570444" lon="35.008404">
        <ele>136.8</ele>
        <time>2013-04-05T05:23:58Z</time>
      </trkpt>
      <trkpt lat="32.570450" lon="35.008453">
        <ele>137.3</ele>
        <time>2013-04-05T05:24:00Z</time>
      </trkpt>
      <trkpt lat="32.570481" lon="35.008464">
        <ele>137.5</ele>
        <time>2013-04-05T05:24:03Z</time>
      </trkpt>
      <trkpt lat="32.570504" lon="35.008481">
        <ele>137.8</ele>
        <time>2013-04-05T05:24:05Z</time>
      </trkpt>
      <trkpt lat="32.570526" lon="35.008516">
        <ele>138.3</ele>
        <time>2013-04-05T05:24:08Z</time>
      </trkpt>
      <trkpt lat="32.570537" lon="35.008546">
        <ele>138.6</ele>
        <time>2013-04-05T05:24:11Z</time>
      </trkpt>
      <trkpt lat="32.570563" lon="35.008572">
        <ele>139.0</ele>
        <time>2013-04-05T05:24:15Z</time>
      </trkpt>
      <trkpt lat="32.570587" lon="35.008602">
        <ele>139.5</ele>
        <time>2013-04-05T05:24:17Z</time>
      </trkpt>
      <trkpt lat="32.570610" lon="35.008632">
        <ele>139.9</ele>
        <time>2013-04-05T05:24:19Z</time>
      </trkpt>
      <trkpt lat="32.570634" lon="35.008667">
        <ele>140.4</ele>
        <time>2013-04-05T05:24:21Z</time>
      </trkpt>
      <trkpt lat="32.570662" lon="35.008712">
        <ele>141.0</ele>
        <time>2013-04-05T05:24:23Z</time>
      </trkpt>
      <trkpt lat="32.570686" lon="35.008758">
        <ele>141.6</ele>
        <time>2013-04-05T05:24:25Z</time>
      </trkpt>
      <trkpt lat="32.570701" lon="35.008791">
        <ele>141.8</ele>
        <time>2013-04-05T05:24:27Z</time>
      </trkpt>
      <trkpt lat="32.570720" lon="35.008824">
        <ele>142.0</ele>
        <time>2013-04-05T05:24:30Z</time>
      </trkpt>
      <trkpt lat="32.570745" lon="35.008865">
        <ele>142.3</ele>
        <time>2013-04-05T05:24:33Z</time>
      </trkpt>
      <trkpt lat="32.570756" lon="35.008900">
        <ele>142.5</ele>
        <time>2013-04-05T05:24:35Z</time>
      </trkpt>
      <trkpt lat="32.570766" lon="35.008932">
        <ele>142.7</ele>
        <time>2013-04-05T05:24:37Z</time>
      </trkpt>
      <trkpt lat="32.570786" lon="35.008961">
        <ele>143.0</ele>
        <time>2013-04-05T05:24:39Z</time>
      </trkpt>
      <trkpt lat="32.570800" lon="35.008988">
        <ele>143.2</ele>
        <time>2013-04-05T05:24:45Z</time>
      </trkpt>
      <trkpt lat="32.570798" lon="35.009028">
        <ele>143.4</ele>
        <time>2013-04-05T05:24:48Z</time>
      </trkpt>
      <trkpt lat="32.570808" lon="35.009068">
        <ele>143.6</ele>
        <time>2013-04-05T05:24:51Z</time>
      </trkpt>
      <trkpt lat="32.570822" lon="35.009113">
        <ele>143.9</ele>
        <time>2013-04-05T05:24:53Z</time>
      </trkpt>
      <trkpt lat="32.570843" lon="35.009168">
        <ele>144.4</ele>
        <time>2013-04-05T05:24:55Z</time>
      </trkpt>
      <trkpt lat="32.570861" lon="35.009219">
        <ele>144.8</ele>
        <time>2013-04-05T05:24:57Z</time>
      </trkpt>
      <trkpt lat="32.570879" lon="35.009263">
        <ele>145.2</ele>
        <time>2013-04-05T05:24:59Z</time>
      </trkpt>
      <trkpt lat="32.570891" lon="35.009292">
        <ele>145.4</ele>
        <time>2013-04-05T05:25:00Z</time>
      </trkpt>
      <trkpt lat="32.570901" lon="35.009329">
        <ele>145.7</ele>
        <time>2013-04-05T05:25:01Z</time>
      </trkpt>
      <trkpt lat="32.570912" lon="35.009371">
        <ele>146.1</ele>
        <time>2013-04-05T05:25:02Z</time>
      </trkpt>
      <trkpt lat="32.570925" lon="35.009414">
        <ele>146.5</ele>
        <time>2013-04-05T05:25:03Z</time>
      </trkpt>
      <trkpt lat="32.570945" lon="35.009467">
        <ele>147.0</ele>
        <time>2013-04-05T05:25:04Z</time>
      </trkpt>
      <trkpt lat="32.570967" lon="35.009513">
        <ele>147.5</ele>
        <time>2013-04-05T05:25:05Z</time>
      </trkpt>
      <trkpt lat="32.570989" lon="35.009552">
        <ele>148.1</ele>
        <time>2013-04-05T05:25:06Z</time>
      </trkpt>
      <trkpt lat="32.571012" lon="35.009594">
        <ele>148.5</ele>
        <time>2013-04-05T05:25:07Z</time>
      </trkpt>
      <trkpt lat="32.571047" lon="35.009675">
        <ele>148.7</ele>
        <time>2013-04-05T05:25:09Z</time>
      </trkpt>
      <trkpt lat="32.571062" lon="35.009710">
        <ele>148.8</ele>
        <time>2013-04-05T05:25:10Z</time>
      </trkpt>
      <trkpt lat="32.571080" lon="35.009749">
        <ele>148.9</ele>
        <time>2013-04-05T05:25:11Z</time>
      </trkpt>
      <trkpt lat="32.571098" lon="35.009788">
        <ele>149.0</ele>
        <time>2013-04-05T05:25:12Z</time>
      </trkpt>
      <trkpt lat="32.571112" lon="35.009818">
        <ele>149.1</ele>
        <time>2013-04-05T05:25:13Z</time>
      </trkpt>
      <trkpt lat="32.571126" lon="35.009850">
        <ele>149.2</ele>
        <time>2013-04-05T05:25:14Z</time>
      </trkpt>
      <trkpt lat="32.571143" lon="35.009894">
        <ele>149.2</ele>
        <time>2013-04-05T05:25:16Z</time>
      </trkpt>
      <trkpt lat="32.571158" lon="35.009931">
        <ele>149.3</ele>
        <time>2013-04-05T05:25:18Z</time>
      </trkpt>
      <trkpt lat="32.571166" lon="35.009972">
        <ele>149.3</ele>
        <time>2013-04-05T05:25:20Z</time>
      </trkpt>
      <trkpt lat="32.571163" lon="35.010008">
        <ele>149.1</ele>
        <time>2013-04-05T05:25:22Z</time>
      </trkpt>
      <trkpt lat="32.571163" lon="35.010062">
        <ele>148.9</ele>
        <time>2013-04-05T05:25:24Z</time>
      </trkpt>
      <trkpt lat="32.571170" lon="35.010100">
        <ele>148.9</ele>
        <time>2013-04-05T05:25:25Z</time>
      </trkpt>
      <trkpt lat="32.571181" lon="35.010147">
        <ele>148.9</ele>
        <time>2013-04-05T05:25:26Z</time>
      </trkpt>
      <trkpt lat="32.571200" lon="35.010189">
        <ele>149.0</ele>
        <time>2013-04-05T05:25:27Z</time>
      </trkpt>
      <trkpt lat="32.571225" lon="35.010222">
        <ele>149.3</ele>
        <time>2013-04-05T05:25:28Z</time>
      </trkpt>
      <trkpt lat="32.571249" lon="35.010252">
        <ele>149.6</ele>
        <time>2013-04-05T05:25:29Z</time>
      </trkpt>
      <trkpt lat="32.571273" lon="35.010275">
        <ele>149.7</ele>
        <time>2013-04-05T05:25:30Z</time>
      </trkpt>
      <trkpt lat="32.571295" lon="35.010301">
        <ele>149.9</ele>
        <time>2013-04-05T05:25:31Z</time>
      </trkpt>
      <trkpt lat="32.571315" lon="35.010329">
        <ele>150.0</ele>
        <time>2013-04-05T05:25:32Z</time>
      </trkpt>
      <trkpt lat="32.571334" lon="35.010360">
        <ele>150.1</ele>
        <time>2013-04-05T05:25:33Z</time>
      </trkpt>
      <trkpt lat="32.571348" lon="35.010398">
        <ele>150.1</ele>
        <time>2013-04-05T05:25:34Z</time>
      </trkpt>
      <trkpt lat="32.571367" lon="35.010445">
        <ele>149.9</ele>
        <time>2013-04-05T05:25:35Z</time>
      </trkpt>
      <trkpt lat="32.571387" lon="35.010494">
        <ele>149.6</ele>
        <time>2013-04-05T05:25:36Z</time>
      </trkpt>
      <trkpt lat="32.571409" lon="35.010547">
        <ele>149.3</ele>
        <time>2013-04-05T05:25:37Z</time>
      </trkpt>
      <trkpt lat="32.571430" lon="35.010595">
        <ele>149.0</ele>
        <time>2013-04-05T05:25:38Z</time>
      </trkpt>
      <trkpt lat="32.571446" lon="35.010645">
        <ele>148.6</ele>
        <time>2013-04-05T05:25:39Z</time>
      </trkpt>
      <trkpt lat="32.571460" lon="35.010694">
        <ele>148.3</ele>
        <time>2013-04-05T05:25:40Z</time>
      </trkpt>
      <trkpt lat="32.571472" lon="35.010746">
        <ele>147.9</ele>
        <time>2013-04-05T05:25:41Z</time>
      </trkpt>
      <trkpt lat="32.571483" lon="35.010796">
        <ele>147.5</ele>
        <time>2013-04-05T05:25:42Z</time>
      </trkpt>
      <trkpt lat="32.571492" lon="35.010841">
        <ele>147.1</ele>
        <time>2013-04-05T05:25:43Z</time>
      </trkpt>
      <trkpt lat="32.571497" lon="35.010882">
        <ele>146.7</ele>
        <time>2013-04-05T05:25:44Z</time>
      </trkpt>
      <trkpt lat="32.571496" lon="35.010923">
        <ele>146.3</ele>
        <time>2013-04-05T05:25:45Z</time>
      </trkpt>
      <trkpt lat="32.571492" lon="35.010956">
        <ele>145.9</ele>
        <time>2013-04-05T05:25:46Z</time>
      </trkpt>
      <trkpt lat="32.571494" lon="35.011004">
        <ele>145.4</ele>
        <time>2013-04-05T05:25:47Z</time>
      </trkpt>
      <trkpt lat="32.571495" lon="35.011052">
        <ele>144.9</ele>
        <time>2013-04-05T05:25:48Z</time>
      </trkpt>
      <trkpt lat="32.571488" lon="35.011095">
        <ele>144.4</ele>
        <time>2013-04-05T05:25:49Z</time>
      </trkpt>
      <trkpt lat="32.571477" lon="35.011131">
        <ele>143.8</ele>
        <time>2013-04-05T05:25:50Z</time>
      </trkpt>
      <trkpt lat="32.571461" lon="35.011162">
        <ele>143.2</ele>
        <time>2013-04-05T05:25:51Z</time>
      </trkpt>
      <trkpt lat="32.571444" lon="35.011194">
        <ele>142.6</ele>
        <time>2013-04-05T05:25:52Z</time>
      </trkpt>
      <trkpt lat="32.571430" lon="35.011229">
        <ele>142.0</ele>
        <time>2013-04-05T05:25:53Z</time>
      </trkpt>
      <trkpt lat="32.571416" lon="35.011263">
        <ele>141.6</ele>
        <time>2013-04-05T05:25:54Z</time>
      </trkpt>
      <trkpt lat="32.571405" lon="35.011316">
        <ele>141.3</ele>
        <time>2013-04-05T05:25:56Z</time>
      </trkpt>
      <trkpt lat="32.571399" lon="35.011354">
        <ele>141.2</ele>
        <time>2013-04-05T05:25:58Z</time>
      </trkpt>
      <trkpt lat="32.571383" lon="35.011406">
        <ele>140.9</ele>
        <time>2013-04-05T05:26:00Z</time>
      </trkpt>
      <trkpt lat="32.571360" lon="35.011454">
        <ele>140.5</ele>
        <time>2013-04-05T05:26:02Z</time>
      </trkpt>
      <trkpt lat="32.571325" lon="35.011486">
        <ele>139.9</ele>
        <time>2013-04-05T05:26:04Z</time>
      </trkpt>
      <trkpt lat="32.571305" lon="35.011509">
        <ele>139.5</ele>
        <time>2013-04-05T05:26:05Z</time>
      </trkpt>
      <trkpt lat="32.571286" lon="35.011541">
        <ele>139.2</ele>
        <time>2013-04-05T05:26:06Z</time>
      </trkpt>
      <trkpt lat="32.571267" lon="35.011577">
        <ele>138.9</ele>
        <time>2013-04-05T05:26:07Z</time>
      </trkpt>
      <trkpt lat="32.571246" lon="35.011617">
        <ele>138.5</ele>
        <time>2013-04-05T05:26:08Z</time>
      </trkpt>
      <trkpt lat="32.571226" lon="35.011657">
        <ele>138.1</ele>
        <time>2013-04-05T05:26:09Z</time>
      </trkpt>
      <trkpt lat="32.571208" lon="35.011704">
        <ele>137.8</ele>
        <time>2013-04-05T05:26:10Z</time>
      </trkpt>
      <trkpt lat="32.571187" lon="35.011749">
        <ele>137.4</ele>
        <time>2013-04-05T05:26:11Z</time>
      </trkpt>
      <trkpt lat="32.571165" lon="35.011793">
        <ele>137.0</ele>
        <time>2013-04-05T05:26:12Z</time>
      </trkpt>
      <trkpt lat="32.571141" lon="35.011834">
        <ele>136.6</ele>
        <time>2013-04-05T05:26:13Z</time>
      </trkpt>
      <trkpt lat="32.571116" lon="35.011867">
        <ele>136.2</ele>
        <time>2013-04-05T05:26:14Z</time>
      </trkpt>
      <trkpt lat="32.571091" lon="35.011898">
        <ele>135.7</ele>
        <time>2013-04-05T05:26:15Z</time>
      </trkpt>
      <trkpt lat="32.571066" lon="35.011929">
        <ele>135.3</ele>
        <time>2013-04-05T05:26:16Z</time>
      </trkpt>
      <trkpt lat="32.571046" lon="35.011966">
        <ele>135.0</ele>
        <time>2013-04-05T05:26:17Z</time>
      </trkpt>
      <trkpt lat="32.571031" lon="35.012004">
        <ele>134.7</ele>
        <time>2013-04-05T05:26:18Z</time>
      </trkpt>
      <trkpt lat="32.571016" lon="35.012044">
        <ele>134.4</ele>
        <time>2013-04-05T05:26:19Z</time>
      </trkpt>
      <trkpt lat="32.571001" lon="35.012094">
        <ele>134.1</ele>
        <time>2013-04-05T05:26:20Z</time>
      </trkpt>
      <trkpt lat="32.570950" lon="35.012195">
        <ele>133.7</ele>
        <time>2013-04-05T05:26:21Z</time>
      </trkpt>
      <trkpt lat="32.570923" lon="35.012217">
        <ele>133.4</ele>
        <time>2013-04-05T05:26:22Z</time>
      </trkpt>
      <trkpt lat="32.570907" lon="35.012270">
        <ele>133.3</ele>
        <time>2013-04-05T05:26:24Z</time>
      </trkpt>
      <trkpt lat="32.570895" lon="35.012299">
        <ele>133.2</ele>
        <time>2013-04-05T05:26:25Z</time>
      </trkpt>
      <trkpt lat="32.570859" lon="35.012323">
        <ele>132.6</ele>
        <time>2013-04-05T05:26:26Z</time>
      </trkpt>
      <trkpt lat="32.570844" lon="35.012351">
        <ele>132.5</ele>
        <time>2013-04-05T05:26:27Z</time>
      </trkpt>
      <trkpt lat="32.570829" lon="35.012416">
        <ele>132.4</ele>
        <time>2013-04-05T05:26:29Z</time>
      </trkpt>
      <trkpt lat="32.570819" lon="35.012447">
        <ele>132.3</ele>
        <time>2013-04-05T05:26:30Z</time>
      </trkpt>
      <trkpt lat="32.570809" lon="35.012483">
        <ele>132.3</ele>
        <time>2013-04-05T05:26:31Z</time>
      </trkpt>
      <trkpt lat="32.570801" lon="35.012524">
        <ele>132.3</ele>
        <time>2013-04-05T05:26:32Z</time>
      </trkpt>
      <trkpt lat="32.570796" lon="35.012566">
        <ele>132.3</ele>
        <time>2013-04-05T05:26:33Z</time>
      </trkpt>
      <trkpt lat="32.570796" lon="35.012607">
        <ele>132.4</ele>
        <time>2013-04-05T05:26:34Z</time>
      </trkpt>
      <trkpt lat="32.570797" lon="35.012645">
        <ele>132.5</ele>
        <time>2013-04-05T05:26:35Z</time>
      </trkpt>
      <trkpt lat="32.570798" lon="35.012682">
        <ele>132.7</ele>
        <time>2013-04-05T05:26:36Z</time>
      </trkpt>
      <trkpt lat="32.570784" lon="35.012736">
        <ele>132.6</ele>
        <time>2013-04-05T05:26:38Z</time>
      </trkpt>
      <trkpt lat="32.570766" lon="35.012762">
        <ele>132.3</ele>
        <time>2013-04-05T05:26:39Z</time>
      </trkpt>
      <trkpt lat="32.570744" lon="35.012787">
        <ele>131.9</ele>
        <time>2013-04-05T05:26:40Z</time>
      </trkpt>
      <trkpt lat="32.570719" lon="35.012810">
        <ele>131.5</ele>
        <time>2013-04-05T05:26:41Z</time>
      </trkpt>
      <trkpt lat="32.570690" lon="35.012866">
        <ele>131.1</ele>
        <time>2013-04-05T05:26:43Z</time>
      </trkpt>
      <trkpt lat="32.570682" lon="35.012904">
        <ele>131.1</ele>
        <time>2013-04-05T05:26:44Z</time>
      </trkpt>
      <trkpt lat="32.570681" lon="35.012944">
        <ele>131.1</ele>
        <time>2013-04-05T05:26:45Z</time>
      </trkpt>
      <trkpt lat="32.570687" lon="35.013013">
        <ele>131.5</ele>
        <time>2013-04-05T05:26:47Z</time>
      </trkpt>
      <trkpt lat="32.570688" lon="35.013052">
        <ele>131.6</ele>
        <time>2013-04-05T05:26:48Z</time>
      </trkpt>
      <trkpt lat="32.570686" lon="35.013092">
        <ele>131.7</ele>
        <time>2013-04-05T05:26:49Z</time>
      </trkpt>
      <trkpt lat="32.570682" lon="35.013135">
        <ele>131.7</ele>
        <time>2013-04-05T05:26:50Z</time>
      </trkpt>
      <trkpt lat="32.570678" lon="35.013180">
        <ele>131.8</ele>
        <time>2013-04-05T05:26:51Z</time>
      </trkpt>
      <trkpt lat="32.570678" lon="35.013224">
        <ele>131.9</ele>
        <time>2013-04-05T05:26:52Z</time>
      </trkpt>
      <trkpt lat="32.570680" lon="35.013265">
        <ele>132.1</ele>
        <time>2013-04-05T05:26:53Z</time>
      </trkpt>
      <trkpt lat="32.570686" lon="35.013305">
        <ele>132.3</ele>
        <time>2013-04-05T05:26:54Z</time>
      </trkpt>
      <trkpt lat="32.570694" lon="35.013344">
        <ele>132.5</ele>
        <time>2013-04-05T05:26:55Z</time>
      </trkpt>
      <trkpt lat="32.570703" lon="35.013380">
        <ele>132.8</ele>
        <time>2013-04-05T05:26:56Z</time>
      </trkpt>
      <trkpt lat="32.570717" lon="35.013410">
        <ele>133.0</ele>
        <time>2013-04-05T05:26:57Z</time>
      </trkpt>
      <trkpt lat="32.570735" lon="35.013435">
        <ele>133.3</ele>
        <time>2013-04-05T05:26:58Z</time>
      </trkpt>
      <trkpt lat="32.570758" lon="35.013464">
        <ele>133.7</ele>
        <time>2013-04-05T05:26:59Z</time>
      </trkpt>
      <trkpt lat="32.570784" lon="35.013502">
        <ele>134.1</ele>
        <time>2013-04-05T05:27:00Z</time>
      </trkpt>
      <trkpt lat="32.570809" lon="35.013541">
        <ele>134.5</ele>
        <time>2013-04-05T05:27:01Z</time>
      </trkpt>
      <trkpt lat="32.570830" lon="35.013582">
        <ele>134.8</ele>
        <time>2013-04-05T05:27:02Z</time>
      </trkpt>
      <trkpt lat="32.570844" lon="35.013622">
        <ele>135.0</ele>
        <time>2013-04-05T05:27:03Z</time>
      </trkpt>
      <trkpt lat="32.570847" lon="35.013662">
        <ele>135.0</ele>
        <time>2013-04-05T05:27:04Z</time>
      </trkpt>
      <trkpt lat="32.570827" lon="35.013887">
        <ele>135.3</ele>
        <time>2013-04-05T05:27:06Z</time>
      </trkpt>
      <trkpt lat="32.570793" lon="35.013909">
        <ele>135.1</ele>
        <time>2013-04-05T05:27:07Z</time>
      </trkpt>
      <trkpt lat="32.570788" lon="35.014034">
        <ele>135.4</ele>
        <time>2013-04-05T05:27:08Z</time>
      </trkpt>
      <trkpt lat="32.570763" lon="35.014078">
        <ele>135.4</ele>
        <time>2013-04-05T05:27:09Z</time>
      </trkpt>
      <trkpt lat="32.570734" lon="35.014111">
        <ele>135.3</ele>
        <time>2013-04-05T05:27:10Z</time>
      </trkpt>
      <trkpt lat="32.570716" lon="35.014136">
        <ele>135.3</ele>
        <time>2013-04-05T05:27:13Z</time>
      </trkpt>
      <trkpt lat="32.570689" lon="35.014150">
        <ele>135.2</ele>
        <time>2013-04-05T05:27:14Z</time>
      </trkpt>
      <trkpt lat="32.570677" lon="35.014180">
        <ele>135.3</ele>
        <time>2013-04-05T05:27:20Z</time>
      </trkpt>
      <trkpt lat="32.570641" lon="35.014193">
        <ele>135.2</ele>
        <time>2013-04-05T05:27:30Z</time>
      </trkpt>
      <trkpt lat="32.570610" lon="35.014185">
        <ele>135.0</ele>
        <time>2013-04-05T05:27:34Z</time>
      </trkpt>
      <trkpt lat="32.570579" lon="35.014174">
        <ele>134.8</ele>
        <time>2013-04-05T05:27:36Z</time>
      </trkpt>
      <trkpt lat="32.570538" lon="35.014173">
        <ele>134.6</ele>
        <time>2013-04-05T05:27:38Z</time>
      </trkpt>
      <trkpt lat="32.570505" lon="35.014193">
        <ele>134.6</ele>
        <time>2013-04-05T05:27:39Z</time>
      </trkpt>
      <trkpt lat="32.570464" lon="35.014209">
        <ele>134.5</ele>
        <time>2013-04-05T05:27:41Z</time>
      </trkpt>
    </trkseg>
  </trk>
</gpx>
